sensor_id;sensor_type;location;lat;lon;timestamp;P1;P2;P0
58740;PMS7003;44512;53.046;18.604;2023-06-22T00:05:32;26;23;16
58740;PMS7003;44512;53.046;18.604;2023-06-22T00:16:01;22;20;14
58740;PMS7003;44512;53.046;18.604;2023-06-22T00:26:29;24;23;17
58740;PMS7003;44512;53.046;18.604;2023-06-22T00:36:58;25;22;16
58740;PMS7003;44512;53.046;18.604;2023-06-22T00:47:26;23;22;16
58740;PMS7003;44512;53.046;18.604;2023-06-22T00:57:54;28;25;18
58740;PMS7003;44512;53.046;18.604;2023-06-22T01:18:52;22;19;14
58740;PMS7003;44512;53.046;18.604;2023-06-22T01:29:19;23;21;15
58740;PMS7003;44512;53.046;18.604;2023-06-22T01:39:48;20;20;14
58740;PMS7003;44512;53.046;18.604;2023-06-22T01:50:16;20;19;15
58740;PMS7003;44512;53.046;18.604;2023-06-22T02:00:47;19;18;14
58740;PMS7003;44512;53.046;18.604;2023-06-22T02:11:13;18;18;13
58740;PMS7003;44512;53.046;18.604;2023-06-22T02:21:41;17;16;13
58740;PMS7003;44512;53.046;18.604;2023-06-22T02:32:10;19;16;13
58740;PMS7003;44512;53.046;18.604;2023-06-22T02:42:39;16;15;12
58740;PMS7003;44512;53.046;18.604;2023-06-22T02:53:06;15;12;10
58740;PMS7003;44512;53.046;18.604;2023-06-22T03:03:34;13;12;10
58740;PMS7003;44512;53.046;18.604;2023-06-22T03:14:03;14;12;10
58740;PMS7003;44512;53.046;18.604;2023-06-22T03:24:31;16;13;11
58740;PMS7003;44512;53.046;18.604;2023-06-22T03:35:00;11;11;10
58740;PMS7003;44512;53.046;18.604;2023-06-22T03:45:28;14;13;10
58740;PMS7003;44512;53.046;18.604;2023-06-22T03:55:56;13;12;9
58740;PMS7003;44512;53.046;18.604;2023-06-22T04:06:25;13;11;9
58740;PMS7003;44512;53.046;18.604;2023-06-22T04:16:53;12;11;9
58740;PMS7003;44512;53.046;18.604;2023-06-22T04:27:21;12;11;9
58740;PMS7003;44512;53.046;18.604;2023-06-22T04:37:50;11;10;8
58740;PMS7003;44512;53.046;18.604;2023-06-22T04:48:18;14;9;8
58740;PMS7003;44512;53.046;18.604;2023-06-22T04:58:46;11;10;8
58740;PMS7003;44512;53.046;18.604;2023-06-22T05:09:15;10;9;7
58740;PMS7003;44512;53.046;18.604;2023-06-22T05:19:43;11;9;7
58740;PMS7003;44512;53.046;18.604;2023-06-22T05:30:11;12;11;8
58740;PMS7003;44512;53.046;18.604;2023-06-22T05:40:40;12;10;8
58740;PMS7003;44512;53.046;18.604;2023-06-22T05:51:08;13;11;7
58740;PMS7003;44512;53.046;18.604;2023-06-22T06:01:36;13;11;8
58740;PMS7003;44512;53.046;18.604;2023-06-22T06:12:05;13;12;8
58740;PMS7003;44512;53.046;18.604;2023-06-22T06:22:33;11;10;8
58740;PMS7003;44512;53.046;18.604;2023-06-22T06:33:01;10;10;9
58740;PMS7003;44512;53.046;18.604;2023-06-22T06:43:30;9;7;6
58740;PMS7003;44512;53.046;18.604;2023-06-22T06:53:58;10;9;7
58740;PMS7003;44512;53.046;18.604;2023-06-22T07:04:26;8;7;5
58740;PMS7003;44512;53.046;18.604;2023-06-22T07:15:00;8;7;6
58740;PMS7003;44512;53.046;18.604;2023-06-22T07:25:23;8;8;7
58740;PMS7003;44512;53.046;18.604;2023-06-22T07:35:51;7;6;5
58740;PMS7003;44512;53.046;18.604;2023-06-22T07:46:20;6;5;4
58740;PMS7003;44512;53.046;18.604;2023-06-22T07:56:48;4;4;3
58740;PMS7003;44512;53.046;18.604;2023-06-22T08:07:17;6;5;4
58740;PMS7003;44512;53.046;18.604;2023-06-22T08:17:45;4;4;3
58740;PMS7003;44512;53.046;18.604;2023-06-22T08:28:13;5;5;4
58740;PMS7003;44512;53.046;18.604;2023-06-22T08:38:42;5;5;3
58740;PMS7003;44512;53.046;18.604;2023-06-22T08:49:10;6;5;4
58740;PMS7003;44512;53.046;18.604;2023-06-22T08:59:38;6;6;5
58740;PMS7003;44512;53.046;18.604;2023-06-22T09:10:07;6;6;4
58740;PMS7003;44512;53.046;18.604;2023-06-22T09:20:35;4;3;3
58740;PMS7003;44512;53.046;18.604;2023-06-22T09:31:03;6;3;3
58740;PMS7003;44512;53.046;18.604;2023-06-22T09:41:32;5;4;3
58740;PMS7003;44512;53.046;18.604;2023-06-22T09:52:00;5;4;4
58740;PMS7003;44512;53.046;18.604;2023-06-22T10:02:28;3;3;3
58740;PMS7003;44512;53.046;18.604;2023-06-22T10:12:57;4;4;4
58740;PMS7003;44512;53.046;18.604;2023-06-22T10:23:25;4;3;3
58740;PMS7003;44512;53.046;18.604;2023-06-22T10:33:54;4;3;2
58740;PMS7003;44512;53.046;18.604;2023-06-22T10:44:22;3;3;3
58740;PMS7003;44512;53.046;18.604;2023-06-22T10:54:50;3;3;3
58740;PMS7003;44512;53.046;18.604;2023-06-22T11:05:18;3;3;2
58740;PMS7003;44512;53.046;18.604;2023-06-22T11:15:47;5;4;3
58740;PMS7003;44512;53.046;18.604;2023-06-22T11:26:15;3;3;3
58740;PMS7003;44512;53.046;18.604;2023-06-22T11:36:43;6;4;3
58740;PMS7003;44512;53.046;18.604;2023-06-22T11:47:12;2;2;1
58740;PMS7003;44512;53.046;18.604;2023-06-22T11:57:52;4;4;4
58740;PMS7003;44512;53.046;18.604;2023-06-22T12:08:08;2;2;2
58740;PMS7003;44512;53.046;18.604;2023-06-22T12:18:37;6;2;2
58740;PMS7003;44512;53.046;18.604;2023-06-22T12:29:05;2;2;2
58740;PMS7003;44512;53.046;18.604;2023-06-22T12:39:33;3;3;2
58740;PMS7003;44512;53.046;18.604;2023-06-22T12:50:02;3;3;2
58740;PMS7003;44512;53.046;18.604;2023-06-22T13:00:30;4;3;2
58740;PMS7003;44512;53.046;18.604;2023-06-22T13:10:58;2;2;1
58740;PMS7003;44512;53.046;18.604;2023-06-22T13:21:27;2;2;2
58740;PMS7003;44512;53.046;18.604;2023-06-22T13:31:55;3;3;2
58740;PMS7003;44512;53.046;18.604;2023-06-22T13:42:27;1;1;1
58740;PMS7003;44512;53.046;18.604;2023-06-22T13:52:56;2;2;1
58740;PMS7003;44512;53.046;18.604;2023-06-22T14:03:24;3;2;2
58740;PMS7003;44512;53.046;18.604;2023-06-22T14:13:52;2;2;2
58740;PMS7003;44512;53.046;18.604;2023-06-22T14:24:21;2;2;1
58740;PMS7003;44512;53.046;18.604;2023-06-22T14:34:49;2;2;1
58740;PMS7003;44512;53.046;18.604;2023-06-22T14:50:37;1;1;1
58740;PMS7003;44512;53.046;18.604;2023-06-22T15:01:06;2;2;2
58740;PMS7003;44512;53.046;18.604;2023-06-22T15:11:35;2;2;2
58740;PMS7003;44512;53.046;18.604;2023-06-22T15:22:06;3;2;2
58740;PMS7003;44512;53.046;18.604;2023-06-22T15:32:31;2;2;2
58740;PMS7003;44512;53.046;18.604;2023-06-22T15:43:00;3;2;1
58740;PMS7003;44512;53.046;18.604;2023-06-22T15:53:32;2;1;1
58740;PMS7003;44512;53.046;18.604;2023-06-22T16:04:04;1;1;1
58740;PMS7003;44512;53.046;18.604;2023-06-22T16:14:33;2;1;1
58740;PMS7003;44512;53.046;18.604;2023-06-22T16:25:01;2;2;1
58740;PMS7003;44512;53.046;18.604;2023-06-22T16:35:32;2;2;1
58740;PMS7003;44512;53.046;18.604;2023-06-22T16:46:01;2;1;1
58740;PMS7003;44512;53.046;18.604;2023-06-22T16:56:32;2;1;1
58740;PMS7003;44512;53.046;18.604;2023-06-22T17:07:07;1;1;1
58740;PMS7003;44512;53.046;18.604;2023-06-22T17:17:33;2;2;2
58740;PMS7003;44512;53.046;18.604;2023-06-22T17:28:02;3;3;2
58740;PMS7003;44512;53.046;18.604;2023-06-22T17:38:30;2;2;2
58740;PMS7003;44512;53.046;18.604;2023-06-22T17:48:58;3;3;2
58740;PMS7003;44512;53.046;18.604;2023-06-22T17:59:31;3;2;2
58740;PMS7003;44512;53.046;18.604;2023-06-22T18:09:59;3;3;3
58740;PMS7003;44512;53.046;18.604;2023-06-22T18:20:32;4;4;3
58740;PMS7003;44512;53.046;18.604;2023-06-22T18:31:00;19;16;11
58740;PMS7003;44512;53.046;18.604;2023-06-22T18:52:02;6;6;5
58740;PMS7003;44512;53.046;18.604;2023-06-22T19:12:54;8;6;4
58740;PMS7003;44512;53.046;18.604;2023-06-22T19:33:53;8;8;6
58740;PMS7003;44512;53.046;18.604;2023-06-22T19:44:18;7;7;6
58740;PMS7003;44512;53.046;18.604;2023-06-22T19:54:47;8;7;7
58740;PMS7003;44512;53.046;18.604;2023-06-22T20:05:15;9;8;7
58740;PMS7003;44512;53.046;18.604;2023-06-22T20:15:44;10;10;8
58740;PMS7003;44512;53.046;18.604;2023-06-22T20:26:11;11;10;8
58740;PMS7003;44512;53.046;18.604;2023-06-22T20:36:41;9;9;7
58740;PMS7003;44512;53.046;18.604;2023-06-22T20:47:08;13;10;8
58740;PMS7003;44512;53.046;18.604;2023-06-22T20:57:36;11;10;8
58740;PMS7003;44512;53.046;18.604;2023-06-22T21:08:05;12;12;10
58740;PMS7003;44512;53.046;18.604;2023-06-22T21:18:33;12;12;10
58740;PMS7003;44512;53.046;18.604;2023-06-22T21:29:01;13;13;11
58740;PMS7003;44512;53.046;18.604;2023-06-22T21:39:30;17;15;12
58740;PMS7003;44512;53.046;18.604;2023-06-22T21:49:58;15;13;10
58740;PMS7003;44512;53.046;18.604;2023-06-22T22:00:26;18;18;13
58740;PMS7003;44512;53.046;18.604;2023-06-22T22:10:55;19;15;11
58740;PMS7003;44512;53.046;18.604;2023-06-22T22:21:23;16;14;11
58740;PMS7003;44512;53.046;18.604;2023-06-22T22:31:51;17;16;13
58740;PMS7003;44512;53.046;18.604;2023-06-22T22:42:20;18;16;13
58740;PMS7003;44512;53.046;18.604;2023-06-22T22:52:48;21;17;14
58740;PMS7003;44512;53.046;18.604;2023-06-22T23:03:16;25;20;14
58740;PMS7003;44512;53.046;18.604;2023-06-22T23:13:45;25;23;17
58740;PMS7003;44512;53.046;18.604;2023-06-22T23:24:13;22;20;15
58740;PMS7003;44512;53.046;18.604;2023-06-22T23:34:42;27;24;17
58740;PMS7003;44512;53.046;18.604;2023-06-22T23:45:10;26;25;18
58740;PMS7003;44512;53.046;18.604;2023-06-22T23:55:38;26;23;17
